Cape Flattery, Washington
Current Conditions -  °F | °C
As of 3:53 AM on Tuesday 27 Jan 2015 (Local Time) from KUIL Reporting Station
Haze Haze  
Wind Chill:   Ceiling: 400
Heat Index:   Visibility: 1.2mi
Dew Point:   Wind: 5mph
Humidity: 100%   Direction: 130°SE
Pressure: 29.98"   Gusts: NA
Location:  48.3685°N, 124.623°W
Report Text: KUIL 271153Z AUTO 13004KT 1 1/4SM BR OVC004 09/09 A2998 RMK AO2 RAB23E33 SLP153 P0001 60001 70005 T00940094 10100 20094 50001
Loading
Personal Weather Stations






























Interactive Weather Map New forecast layout! Learn more

10-Day Weather Forecast

Advertisements
Track Severe Weather on mobile